NCAR-RAP Real-Time Weather Data

Output produced by METARs form (25 March 2019  01:36 UTC)
found at http://weather.rap.ucar.edu/surface/
 
Conditions at: KTYQ observed 25 March 2019  01:15 UTC
Temperature: 6.2°C (43°F)
Dewpoint: 6.2°C (43°F) [RH = 100%]
Pressure (altimeter): 30.06 inches Hg (1018.0 mb)
Winds: from the SSE (150 degrees) at 3 MPH (3 knots; 1.6 m/s)
Visibility: 10 or more miles (16+ km)
Ceiling: 700 feet AGL
Clouds: overcast cloud deck at 700 feet AGL
Present Weather: automated observation with no human augmentation;
there may or may not be significant weather present at this time
KTYQ 250115Z AUTO 15003KT 10SM OVC007 06/06 A3006 RMK AO2 T00620062